Chronik & Geschichte

Boeing Stearman am Flugplatz Konstanz

Mit seiner 107-jährigen Geschichte ist Konstanz der älteste Verkehrslandeplatz Deutschlands. Lesen Sie unsere Festschrift zum 100-jährigen Platzjubiläum oder entdecken Sie die ausführliche Flugplatzchronik auf der Website der Initiative PRO Flugplatz Konstanz.

Live am Platz

Die Bilder unserer Webcams werden alle 5 Minuten aktualisiert.

Sonnenaufgang:

03:23 UTC / 05:23 Lokal

Sonnenuntergang:

19:27 UTC / 21:27 Lokal

METAR (22.06.2021 10:50 UTC):

EDNY 221050Z 26008KT 230V290 9999 BKN036 OVC043 19/15 Q1013
VFR

TAF (22.06.2021 05:00 UTC):

TAF EDNY 220500Z 2206/2306 VRB03KT 9999 SCT040 BECMG 2208/2210 25005KT PROB30 TEMPO 2210/2220 24015G30KT 4500 TSRA BKN025CB BECMG 2217/2219 VRB03KT

Alle Angaben unverbindlich und ohne Gewähr. Zeiten genähert.

Für den Verkehrslandeplatz Konstanz werden keine offiziellen Wetterinformationen ausgegeben. Daher werden zur Orientierung Daten des nahegelegenen Flughafens Friedrichshafen dargestellt.

Das Landeentgelt kann bei uns auch mit aerops bezahlt werden. Die App für's Handy ist kostenfrei erhältlich.